sensor_id;sensor_type;location;lat;lon;timestamp;temperature;humidity
55083;DHT22;40978;52.850;6.506;2022-07-25T00:01:40;21.60;99.90
55083;DHT22;40978;52.850;6.506;2022-07-25T00:04:06;21.60;99.90
55083;DHT22;40978;52.850;6.506;2022-07-25T00:06:33;21.60;99.90
55083;DHT22;40978;52.850;6.506;2022-07-25T00:09:00;21.60;99.90
55083;DHT22;40978;52.850;6.506;2022-07-25T00:11:25;21.50;99.90
55083;DHT22;40978;52.850;6.506;2022-07-25T00:13:51;21.50;99.90
55083;DHT22;40978;52.850;6.506;2022-07-25T00:16:17;21.50;99.90
55083;DHT22;40978;52.850;6.506;2022-07-25T00:18:43;21.50;99.90
55083;DHT22;40978;52.850;6.506;2022-07-25T00:21:09;21.40;99.90
55083;DHT22;40978;52.850;6.506;2022-07-25T00:23:35;21.40;99.90
55083;DHT22;40978;52.850;6.506;2022-07-25T00:26:00;21.40;99.90
55083;DHT22;40978;52.850;6.506;2022-07-25T00:28:26;21.30;99.90
55083;DHT22;40978;52.850;6.506;2022-07-25T00:30:52;21.30;99.90
55083;DHT22;40978;52.850;6.506;2022-07-25T00:33:18;21.30;99.90
55083;DHT22;40978;52.850;6.506;2022-07-25T00:35:43;21.30;99.90
55083;DHT22;40978;52.850;6.506;2022-07-25T00:38:09;21.30;99.90
55083;DHT22;40978;52.850;6.506;2022-07-25T00:40:35;21.30;99.90
55083;DHT22;40978;52.850;6.506;2022-07-25T00:43:01;21.20;99.90
55083;DHT22;40978;52.850;6.506;2022-07-25T00:45:26;21.20;99.90
55083;DHT22;40978;52.850;6.506;2022-07-25T00:47:52;21.20;99.90
55083;DHT22;40978;52.850;6.506;2022-07-25T00:50:18;21.20;99.90
55083;DHT22;40978;52.850;6.506;2022-07-25T00:52:45;21.10;99.90
55083;DHT22;40978;52.850;6.506;2022-07-25T00:55:11;21.10;99.90
55083;DHT22;40978;52.850;6.506;2022-07-25T00:57:37;21.00;99.90
55083;DHT22;40978;52.850;6.506;2022-07-25T01:00:13;21.00;99.90
55083;DHT22;40978;52.850;6.506;2022-07-25T01:02:40;21.00;99.90
55083;DHT22;40978;52.850;6.506;2022-07-25T01:05:06;21.00;99.90
55083;DHT22;40978;52.850;6.506;2022-07-25T01:07:32;21.00;99.90
55083;DHT22;40978;52.850;6.506;2022-07-25T01:10:00;20.90;99.90
55083;DHT22;40978;52.850;6.506;2022-07-25T01:12:26;20.90;99.90
55083;DHT22;40978;52.850;6.506;2022-07-25T01:14:52;20.90;99.90
55083;DHT22;40978;52.850;6.506;2022-07-25T01:17:18;20.90;99.90
55083;DHT22;40978;52.850;6.506;2022-07-25T01:19:44;20.80;99.90
55083;DHT22;40978;52.850;6.506;2022-07-25T01:22:10;20.80;99.90
55083;DHT22;40978;52.850;6.506;2022-07-25T01:24:38;20.80;99.90
55083;DHT22;40978;52.850;6.506;2022-07-25T01:27:04;20.70;99.90
55083;DHT22;40978;52.850;6.506;2022-07-25T01:29:30;20.70;99.90
55083;DHT22;40978;52.850;6.506;2022-07-25T01:31:55;20.70;99.90
55083;DHT22;40978;52.850;6.506;2022-07-25T01:34:21;20.60;99.90
55083;DHT22;40978;52.850;6.506;2022-07-25T01:36:47;20.60;99.90
55083;DHT22;40978;52.850;6.506;2022-07-25T01:39:12;20.60;99.90
55083;DHT22;40978;52.850;6.506;2022-07-25T01:41:38;20.50;99.90
55083;DHT22;40978;52.850;6.506;2022-07-25T01:44:04;20.60;99.90
55083;DHT22;40978;52.850;6.506;2022-07-25T01:46:29;20.50;99.90
55083;DHT22;40978;52.850;6.506;2022-07-25T01:48:55;20.50;99.90
55083;DHT22;40978;52.850;6.506;2022-07-25T01:51:21;20.50;99.90
55083;DHT22;40978;52.850;6.506;2022-07-25T01:53:47;20.40;99.90
55083;DHT22;40978;52.850;6.506;2022-07-25T01:56:12;20.40;99.90
55083;DHT22;40978;52.850;6.506;2022-07-25T01:58:38;20.40;99.90
55083;DHT22;40978;52.850;6.506;2022-07-25T02:01:04;20.40;99.90
55083;DHT22;40978;52.850;6.506;2022-07-25T02:03:29;20.40;99.90
55083;DHT22;40978;52.850;6.506;2022-07-25T02:06:01;20.30;99.90
55083;DHT22;40978;52.850;6.506;2022-07-25T02:08:27;20.40;99.90
55083;DHT22;40978;52.850;6.506;2022-07-25T02:10:53;20.30;99.90
55083;DHT22;40978;52.850;6.506;2022-07-25T02:13:19;20.30;99.90
55083;DHT22;40978;52.850;6.506;2022-07-25T02:15:45;20.30;99.90
55083;DHT22;40978;52.850;6.506;2022-07-25T02:18:11;20.30;99.90
55083;DHT22;40978;52.850;6.506;2022-07-25T02:20:36;20.30;99.90
55083;DHT22;40978;52.850;6.506;2022-07-25T02:23:03;20.20;99.90
55083;DHT22;40978;52.850;6.506;2022-07-25T02:25:29;20.20;99.90
55083;DHT22;40978;52.850;6.506;2022-07-25T02:27:55;20.20;99.90
55083;DHT22;40978;52.850;6.506;2022-07-25T02:30:21;20.20;99.90
55083;DHT22;40978;52.850;6.506;2022-07-25T02:32:48;20.20;99.90
55083;DHT22;40978;52.850;6.506;2022-07-25T02:35:13;20.20;99.90
55083;DHT22;40978;52.850;6.506;2022-07-25T02:37:40;20.20;99.90
55083;DHT22;40978;52.850;6.506;2022-07-25T02:40:06;20.10;99.90
55083;DHT22;40978;52.850;6.506;2022-07-25T02:42:32;20.10;99.90
55083;DHT22;40978;52.850;6.506;2022-07-25T02:44:57;20.10;99.90
55083;DHT22;40978;52.850;6.506;2022-07-25T02:47:23;20.10;99.90
55083;DHT22;40978;52.850;6.506;2022-07-25T02:49:49;20.10;99.90
55083;DHT22;40978;52.850;6.506;2022-07-25T02:52:14;20.10;99.90
55083;DHT22;40978;52.850;6.506;2022-07-25T02:54:40;20.10;99.90
55083;DHT22;40978;52.850;6.506;2022-07-25T02:57:06;20.10;99.90
55083;DHT22;40978;52.850;6.506;2022-07-25T02:59:31;20.10;99.90
55083;DHT22;40978;52.850;6.506;2022-07-25T03:01:57;20.10;99.90
55083;DHT22;40978;52.850;6.506;2022-07-25T03:04:23;20.00;99.90
55083;DHT22;40978;52.850;6.506;2022-07-25T03:06:48;20.10;99.90
55083;DHT22;40978;52.850;6.506;2022-07-25T03:09:14;20.00;99.90
55083;DHT22;40978;52.850;6.506;2022-07-25T03:11:40;20.00;99.90
55083;DHT22;40978;52.850;6.506;2022-07-25T03:14:07;20.00;99.90
55083;DHT22;40978;52.850;6.506;2022-07-25T03:16:32;19.90;99.90
55083;DHT22;40978;52.850;6.506;2022-07-25T03:18:58;20.00;99.90
55083;DHT22;40978;52.850;6.506;2022-07-25T03:21:24;19.90;99.90
55083;DHT22;40978;52.850;6.506;2022-07-25T03:23:49;19.90;99.90
55083;DHT22;40978;52.850;6.506;2022-07-25T03:26:15;20.00;99.90
55083;DHT22;40978;52.850;6.506;2022-07-25T03:28:41;19.90;99.90
55083;DHT22;40978;52.850;6.506;2022-07-25T03:31:06;19.90;99.90
55083;DHT22;40978;52.850;6.506;2022-07-25T03:33:32;19.90;99.90
55083;DHT22;40978;52.850;6.506;2022-07-25T03:35:58;19.90;99.90
55083;DHT22;40978;52.850;6.506;2022-07-25T03:38:23;19.80;99.90
55083;DHT22;40978;52.850;6.506;2022-07-25T03:40:49;19.90;99.90
55083;DHT22;40978;52.850;6.506;2022-07-25T03:43:15;19.80;99.90
55083;DHT22;40978;52.850;6.506;2022-07-25T03:45:41;19.80;99.90
55083;DHT22;40978;52.850;6.506;2022-07-25T03:48:07;19.80;99.90
55083;DHT22;40978;52.850;6.506;2022-07-25T03:50:32;19.80;99.90
55083;DHT22;40978;52.850;6.506;2022-07-25T03:52:58;19.70;99.90
55083;DHT22;40978;52.850;6.506;2022-07-25T03:55:24;19.70;99.90
55083;DHT22;40978;52.850;6.506;2022-07-25T03:57:49;19.70;99.90
55083;DHT22;40978;52.850;6.506;2022-07-25T04:00:15;19.70;99.90
55083;DHT22;40978;52.850;6.506;2022-07-25T04:02:42;19.70;99.90
55083;DHT22;40978;52.850;6.506;2022-07-25T04:05:08;19.70;99.90
55083;DHT22;40978;52.850;6.506;2022-07-25T04:07:34;19.60;99.90
55083;DHT22;40978;52.850;6.506;2022-07-25T04:10:00;19.70;99.90
55083;DHT22;40978;52.850;6.506;2022-07-25T04:12:26;19.60;99.90
55083;DHT22;40978;52.850;6.506;2022-07-25T04:14:52;19.60;99.90
55083;DHT22;40978;52.850;6.506;2022-07-25T04:17:17;19.60;99.90
55083;DHT22;40978;52.850;6.506;2022-07-25T04:19:43;19.60;99.90
55083;DHT22;40978;52.850;6.506;2022-07-25T04:22:09;19.60;99.90
55083;DHT22;40978;52.850;6.506;2022-07-25T04:24:34;19.70;99.90
55083;DHT22;40978;52.850;6.506;2022-07-25T04:27:00;19.70;99.90
55083;DHT22;40978;52.850;6.506;2022-07-25T04:29:26;19.70;99.90
55083;DHT22;40978;52.850;6.506;2022-07-25T04:31:52;19.80;99.90
55083;DHT22;40978;52.850;6.506;2022-07-25T04:34:17;19.80;99.90
55083;DHT22;40978;52.850;6.506;2022-07-25T04:36:43;19.90;99.90
55083;DHT22;40978;52.850;6.506;2022-07-25T04:39:09;19.90;99.90
55083;DHT22;40978;52.850;6.506;2022-07-25T04:41:34;20.00;99.90
55083;DHT22;40978;52.850;6.506;2022-07-25T04:44:00;20.10;99.90
55083;DHT22;40978;52.850;6.506;2022-07-25T04:46:26;20.20;99.90
55083;DHT22;40978;52.850;6.506;2022-07-25T04:48:51;20.30;99.90
55083;DHT22;40978;52.850;6.506;2022-07-25T04:51:17;20.40;99.90
55083;DHT22;40978;52.850;6.506;2022-07-25T04:53:44;20.40;99.90
55083;DHT22;40978;52.850;6.506;2022-07-25T04:56:09;20.50;99.90
55083;DHT22;40978;52.850;6.506;2022-07-25T04:58:35;20.50;99.90
55083;DHT22;40978;52.850;6.506;2022-07-25T05:01:01;20.50;99.90
55083;DHT22;40978;52.850;6.506;2022-07-25T05:03:26;20.60;99.90
55083;DHT22;40978;52.850;6.506;2022-07-25T05:05:52;20.70;99.90
55083;DHT22;40978;52.850;6.506;2022-07-25T05:08:18;20.80;99.90
55083;DHT22;40978;52.850;6.506;2022-07-25T05:10:43;20.90;99.90
55083;DHT22;40978;52.850;6.506;2022-07-25T05:13:09;21.10;99.90
55083;DHT22;40978;52.850;6.506;2022-07-25T05:15:35;21.30;99.90
55083;DHT22;40978;52.850;6.506;2022-07-25T05:18:01;21.40;99.90
55083;DHT22;40978;52.850;6.506;2022-07-25T05:20:27;21.40;99.90
55083;DHT22;40978;52.850;6.506;2022-07-25T05:22:52;21.50;99.90
55083;DHT22;40978;52.850;6.506;2022-07-25T05:25:19;21.60;99.90
55083;DHT22;40978;52.850;6.506;2022-07-25T05:27:44;21.60;99.90
55083;DHT22;40978;52.850;6.506;2022-07-25T05:30:12;21.60;99.90
55083;DHT22;40978;52.850;6.506;2022-07-25T05:32:39;21.60;99.90
55083;DHT22;40978;52.850;6.506;2022-07-25T05:35:07;21.70;99.90
55083;DHT22;40978;52.850;6.506;2022-07-25T05:37:35;21.70;99.90
55083;DHT22;40978;52.850;6.506;2022-07-25T05:40:01;21.70;99.90
55083;DHT22;40978;52.850;6.506;2022-07-25T05:42:27;21.80;99.90
55083;DHT22;40978;52.850;6.506;2022-07-25T05:44:53;21.80;99.90
55083;DHT22;40978;52.850;6.506;2022-07-25T05:47:18;21.90;99.90
55083;DHT22;40978;52.850;6.506;2022-07-25T05:49:44;21.90;99.90
55083;DHT22;40978;52.850;6.506;2022-07-25T05:52:10;22.10;99.90
55083;DHT22;40978;52.850;6.506;2022-07-25T05:54:35;22.20;99.90
55083;DHT22;40978;52.850;6.506;2022-07-25T05:57:02;22.20;99.90
55083;DHT22;40978;52.850;6.506;2022-07-25T05:59:27;22.30;99.90
55083;DHT22;40978;52.850;6.506;2022-07-25T06:01:53;22.40;99.90
55083;DHT22;40978;52.850;6.506;2022-07-25T06:04:19;22.40;99.90
55083;DHT22;40978;52.850;6.506;2022-07-25T06:06:44;22.50;99.90
55083;DHT22;40978;52.850;6.506;2022-07-25T06:09:19;22.60;99.90
55083;DHT22;40978;52.850;6.506;2022-07-25T06:11:46;22.80;99.90
55083;DHT22;40978;52.850;6.506;2022-07-25T06:14:12;22.90;99.90
55083;DHT22;40978;52.850;6.506;2022-07-25T06:16:39;23.10;99.90
55083;DHT22;40978;52.850;6.506;2022-07-25T06:19:05;23.20;99.90
55083;DHT22;40978;52.850;6.506;2022-07-25T06:21:31;23.30;99.90
55083;DHT22;40978;52.850;6.506;2022-07-25T06:23:57;23.40;99.90
55083;DHT22;40978;52.850;6.506;2022-07-25T06:26:22;23.50;99.90
55083;DHT22;40978;52.850;6.506;2022-07-25T06:28:49;23.70;99.90
55083;DHT22;40978;52.850;6.506;2022-07-25T06:31:15;23.80;99.90
55083;DHT22;40978;52.850;6.506;2022-07-25T06:33:41;23.90;99.90
55083;DHT22;40978;52.850;6.506;2022-07-25T06:36:07;24.00;99.90
55083;DHT22;40978;52.850;6.506;2022-07-25T06:38:33;24.10;99.90
55083;DHT22;40978;52.850;6.506;2022-07-25T06:40:58;24.30;99.90
55083;DHT22;40978;52.850;6.506;2022-07-25T06:43:24;24.40;99.90
55083;DHT22;40978;52.850;6.506;2022-07-25T06:45:50;24.40;99.90
55083;DHT22;40978;52.850;6.506;2022-07-25T06:48:16;24.50;99.90
55083;DHT22;40978;52.850;6.506;2022-07-25T06:50:42;24.60;99.90
55083;DHT22;40978;52.850;6.506;2022-07-25T06:53:08;24.80;99.90
55083;DHT22;40978;52.850;6.506;2022-07-25T06:55:34;25.00;99.90
55083;DHT22;40978;52.850;6.506;2022-07-25T06:58:00;25.20;99.90
55083;DHT22;40978;52.850;6.506;2022-07-25T07:00:25;25.40;99.90
55083;DHT22;40978;52.850;6.506;2022-07-25T07:02:54;25.60;99.90
55083;DHT22;40978;52.850;6.506;2022-07-25T07:05:28;25.90;99.90
55083;DHT22;40978;52.850;6.506;2022-07-25T07:07:55;26.10;99.90
55083;DHT22;40978;52.850;6.506;2022-07-25T07:10:21;26.40;99.90
55083;DHT22;40978;52.850;6.506;2022-07-25T07:12:48;26.50;98.30
55083;DHT22;40978;52.850;6.506;2022-07-25T07:15:14;26.60;98.50
55083;DHT22;40978;52.850;6.506;2022-07-25T07:17:40;26.60;98.00
55083;DHT22;40978;52.850;6.506;2022-07-25T07:20:07;26.60;97.20
55083;DHT22;40978;52.850;6.506;2022-07-25T07:22:46;26.60;96.70
55083;DHT22;40978;52.850;6.506;2022-07-25T07:25:14;26.50;95.60
55083;DHT22;40978;52.850;6.506;2022-07-25T07:27:40;26.40;95.90
55083;DHT22;40978;52.850;6.506;2022-07-25T07:30:07;26.30;96.10
55083;DHT22;40978;52.850;6.506;2022-07-25T07:32:33;26.20;96.60
55083;DHT22;40978;52.850;6.506;2022-07-25T07:34:58;26.10;96.90
55083;DHT22;40978;52.850;6.506;2022-07-25T07:37:24;26.10;96.60
55083;DHT22;40978;52.850;6.506;2022-07-25T07:39:50;25.90;96.50
55083;DHT22;40978;52.850;6.506;2022-07-25T07:42:15;25.80;96.90
55083;DHT22;40978;52.850;6.506;2022-07-25T07:44:41;25.80;97.50
55083;DHT22;40978;52.850;6.506;2022-07-25T07:47:07;25.80;97.60
55083;DHT22;40978;52.850;6.506;2022-07-25T07:49:32;25.80;97.80
55083;DHT22;40978;52.850;6.506;2022-07-25T07:51:58;25.90;98.80
55083;DHT22;40978;52.850;6.506;2022-07-25T07:54:24;26.00;98.10
55083;DHT22;40978;52.850;6.506;2022-07-25T07:57:08;26.10;98.90
55083;DHT22;40978;52.850;6.506;2022-07-25T07:59:33;26.30;98.30
55083;DHT22;40978;52.850;6.506;2022-07-25T08:01:59;26.40;97.50
55083;DHT22;40978;52.850;6.506;2022-07-25T08:04:25;26.40;96.50
55083;DHT22;40978;52.850;6.506;2022-07-25T08:06:50;26.40;96.60
55083;DHT22;40978;52.850;6.506;2022-07-25T08:09:16;26.40;95.30
55083;DHT22;40978;52.850;6.506;2022-07-25T08:11:42;26.20;94.70
55083;DHT22;40978;52.850;6.506;2022-07-25T08:14:08;26.10;94.50
55083;DHT22;40978;52.850;6.506;2022-07-25T08:16:33;25.90;94.80
55083;DHT22;40978;52.850;6.506;2022-07-25T08:18:59;25.80;95.30
55083;DHT22;40978;52.850;6.506;2022-07-25T08:21:24;25.70;95.30
55083;DHT22;40978;52.850;6.506;2022-07-25T08:23:50;25.70;96.10
55083;DHT22;40978;52.850;6.506;2022-07-25T08:26:16;26.20;97.10
55083;DHT22;40978;52.850;6.506;2022-07-25T08:28:41;26.70;96.20
55083;DHT22;40978;52.850;6.506;2022-07-25T08:31:07;27.00;96.90
55083;DHT22;40978;52.850;6.506;2022-07-25T08:33:33;27.10;95.60
55083;DHT22;40978;52.850;6.506;2022-07-25T08:35:59;27.00;95.00
55083;DHT22;40978;52.850;6.506;2022-07-25T08:38:26;27.00;95.40
55083;DHT22;40978;52.850;6.506;2022-07-25T08:40:53;27.00;95.00
55083;DHT22;40978;52.850;6.506;2022-07-25T08:43:19;26.90;94.70
55083;DHT22;40978;52.850;6.506;2022-07-25T08:45:50;26.80;94.50
55083;DHT22;40978;52.850;6.506;2022-07-25T08:48:18;26.60;94.20
55083;DHT22;40978;52.850;6.506;2022-07-25T08:50:45;26.30;94.50
55083;DHT22;40978;52.850;6.506;2022-07-25T08:53:12;26.20;95.30
55083;DHT22;40978;52.850;6.506;2022-07-25T08:55:38;26.00;95.60
55083;DHT22;40978;52.850;6.506;2022-07-25T08:58:04;25.90;95.30
55083;DHT22;40978;52.850;6.506;2022-07-25T09:00:29;25.80;95.70
55083;DHT22;40978;52.850;6.506;2022-07-25T09:03:00;25.70;96.00
55083;DHT22;40978;52.850;6.506;2022-07-25T09:05:30;25.70;96.20
55083;DHT22;40978;52.850;6.506;2022-07-25T09:08:04;25.70;95.90
55083;DHT22;40978;52.850;6.506;2022-07-25T09:10:30;25.70;95.90
55083;DHT22;40978;52.850;6.506;2022-07-25T09:13:07;25.80;96.10
55083;DHT22;40978;52.850;6.506;2022-07-25T09:15:40;25.80;95.80
55083;DHT22;40978;52.850;6.506;2022-07-25T09:18:10;25.70;96.40
55083;DHT22;40978;52.850;6.506;2022-07-25T09:20:44;25.70;96.80
55083;DHT22;40978;52.850;6.506;2022-07-25T09:23:11;25.70;95.90
55083;DHT22;40978;52.850;6.506;2022-07-25T09:25:37;25.60;94.70
55083;DHT22;40978;52.850;6.506;2022-07-25T09:28:17;25.80;93.90
55083;DHT22;40978;52.850;6.506;2022-07-25T09:30:54;26.00;92.40
55083;DHT22;40978;52.850;6.506;2022-07-25T09:33:21;26.10;92.40
55083;DHT22;40978;52.850;6.506;2022-07-25T09:35:47;26.20;91.80
55083;DHT22;40978;52.850;6.506;2022-07-25T09:38:14;26.40;92.10
55083;DHT22;40978;52.850;6.506;2022-07-25T09:40:41;26.80;91.80
55083;DHT22;40978;52.850;6.506;2022-07-25T09:43:17;27.30;91.50
55083;DHT22;40978;52.850;6.506;2022-07-25T09:45:52;27.70;89.70
55083;DHT22;40978;52.850;6.506;2022-07-25T09:48:18;28.10;85.50
55083;DHT22;40978;52.850;6.506;2022-07-25T09:50:45;28.10;85.70
55083;DHT22;40978;52.850;6.506;2022-07-25T09:53:11;27.90;83.00
55083;DHT22;40978;52.850;6.506;2022-07-25T09:55:36;27.70;84.10
55083;DHT22;40978;52.850;6.506;2022-07-25T09:58:02;27.40;84.40
55083;DHT22;40978;52.850;6.506;2022-07-25T10:00:30;27.00;85.10
55083;DHT22;40978;52.850;6.506;2022-07-25T10:06:21;26.50;87.70
55083;DHT22;40978;52.850;6.506;2022-07-25T10:08:50;26.40;89.10
55083;DHT22;40978;52.850;6.506;2022-07-25T10:11:21;26.40;90.10
55083;DHT22;40978;52.850;6.506;2022-07-25T10:13:47;26.60;90.70
55083;DHT22;40978;52.850;6.506;2022-07-25T10:16:26;26.90;91.10
55083;DHT22;40978;52.850;6.506;2022-07-25T10:18:53;27.40;90.50
55083;DHT22;40978;52.850;6.506;2022-07-25T10:21:20;27.70;90.50
55083;DHT22;40978;52.850;6.506;2022-07-25T10:24:03;28.00;90.80
55083;DHT22;40978;52.850;6.506;2022-07-25T10:26:30;28.10;90.20
55083;DHT22;40978;52.850;6.506;2022-07-25T10:28:56;28.20;90.80
55083;DHT22;40978;52.850;6.506;2022-07-25T10:31:36;28.40;90.70
55083;DHT22;40978;52.850;6.506;2022-07-25T10:34:09;28.50;88.60
55083;DHT22;40978;52.850;6.506;2022-07-25T10:36:51;28.20;85.80
55083;DHT22;40978;52.850;6.506;2022-07-25T10:39:20;27.90;87.60
55083;DHT22;40978;52.850;6.506;2022-07-25T10:41:59;27.60;89.00
55083;DHT22;40978;52.850;6.506;2022-07-25T10:44:31;27.30;90.00
55083;DHT22;40978;52.850;6.506;2022-07-25T10:47:11;26.90;89.20
55083;DHT22;40978;52.850;6.506;2022-07-25T10:49:38;26.60;90.40
55083;DHT22;40978;52.850;6.506;2022-07-25T10:52:04;26.40;93.00
55083;DHT22;40978;52.850;6.506;2022-07-25T10:54:36;26.20;94.10
55083;DHT22;40978;52.850;6.506;2022-07-25T10:57:04;26.00;94.50
55083;DHT22;40978;52.850;6.506;2022-07-25T10:59:35;25.80;95.20
55083;DHT22;40978;52.850;6.506;2022-07-25T11:02:03;25.50;96.60
55083;DHT22;40978;52.850;6.506;2022-07-25T11:04:30;25.30;98.20
55083;DHT22;40978;52.850;6.506;2022-07-25T11:06:56;25.20;99.90
55083;DHT22;40978;52.850;6.506;2022-07-25T11:09:27;25.10;99.90
55083;DHT22;40978;52.850;6.506;2022-07-25T11:11:57;25.10;99.90
55083;DHT22;40978;52.850;6.506;2022-07-25T11:14:27;25.10;99.90
55083;DHT22;40978;52.850;6.506;2022-07-25T11:16:55;25.20;99.90
55083;DHT22;40978;52.850;6.506;2022-07-25T11:19:27;25.50;99.90
55083;DHT22;40978;52.850;6.506;2022-07-25T11:21:55;25.70;99.90
55083;DHT22;40978;52.850;6.506;2022-07-25T11:27:00;25.60;99.20
55083;DHT22;40978;52.850;6.506;2022-07-25T11:29:25;25.50;99.30
55083;DHT22;40978;52.850;6.506;2022-07-25T11:32:04;25.50;99.90
55083;DHT22;40978;52.850;6.506;2022-07-25T11:34:33;25.60;99.90
55083;DHT22;40978;52.850;6.506;2022-07-25T11:37:02;25.60;99.90
55083;DHT22;40978;52.850;6.506;2022-07-25T11:39:30;25.70;99.90
55083;DHT22;40978;52.850;6.506;2022-07-25T11:42:05;26.00;99.90
55083;DHT22;40978;52.850;6.506;2022-07-25T11:44:40;26.10;98.30
55083;DHT22;40978;52.850;6.506;2022-07-25T11:47:08;25.90;98.70
55083;DHT22;40978;52.850;6.506;2022-07-25T11:49:49;25.70;98.60
55083;DHT22;40978;52.850;6.506;2022-07-25T11:55:02;25.50;98.40
55083;DHT22;40978;52.850;6.506;2022-07-25T11:57:30;25.50;99.10
55083;DHT22;40978;52.850;6.506;2022-07-25T11:59:56;25.50;98.70
55083;DHT22;40978;52.850;6.506;2022-07-25T12:02:30;25.50;98.80
55083;DHT22;40978;52.850;6.506;2022-07-25T12:05:01;25.30;98.40
55083;DHT22;40978;52.850;6.506;2022-07-25T12:07:53;25.00;99.00
55083;DHT22;40978;52.850;6.506;2022-07-25T12:10:38;24.90;99.60
55083;DHT22;40978;52.850;6.506;2022-07-25T12:13:05;24.90;99.50
55083;DHT22;40978;52.850;6.506;2022-07-25T12:15:36;25.10;99.90
55083;DHT22;40978;52.850;6.506;2022-07-25T12:18:03;25.20;99.90
55083;DHT22;40978;52.850;6.506;2022-07-25T12:20:33;25.40;99.60
55083;DHT22;40978;52.850;6.506;2022-07-25T12:23:01;25.50;98.00
55083;DHT22;40978;52.850;6.506;2022-07-25T12:25:29;25.70;96.40
55083;DHT22;40978;52.850;6.506;2022-07-25T12:27:56;25.80;96.10
55083;DHT22;40978;52.850;6.506;2022-07-25T12:30:24;25.80;95.40
55083;DHT22;40978;52.850;6.506;2022-07-25T12:32:50;25.80;94.10
55083;DHT22;40978;52.850;6.506;2022-07-25T12:35:16;25.90;94.10
55083;DHT22;40978;52.850;6.506;2022-07-25T12:37:42;26.00;94.40
55083;DHT22;40978;52.850;6.506;2022-07-25T12:40:11;25.80;93.50
55083;DHT22;40978;52.850;6.506;2022-07-25T12:42:37;25.50;92.80
55083;DHT22;40978;52.850;6.506;2022-07-25T12:45:03;25.30;93.20
55083;DHT22;40978;52.850;6.506;2022-07-25T12:47:29;25.20;93.50
55083;DHT22;40978;52.850;6.506;2022-07-25T12:49:54;25.20;93.60
55083;DHT22;40978;52.850;6.506;2022-07-25T12:52:21;25.20;93.60
55083;DHT22;40978;52.850;6.506;2022-07-25T12:54:47;25.10;93.00
55083;DHT22;40978;52.850;6.506;2022-07-25T12:57:13;24.90;92.50
55083;DHT22;40978;52.850;6.506;2022-07-25T12:59:39;24.80;93.00
55083;DHT22;40978;52.850;6.506;2022-07-25T13:02:05;24.80;92.70
55083;DHT22;40978;52.850;6.506;2022-07-25T13:04:31;24.90;93.30
55083;DHT22;40978;52.850;6.506;2022-07-25T13:06:57;24.90;93.00
55083;DHT22;40978;52.850;6.506;2022-07-25T13:09:24;25.00;92.80
55083;DHT22;40978;52.850;6.506;2022-07-25T13:11:51;25.00;93.20
55083;DHT22;40978;52.850;6.506;2022-07-25T13:14:17;25.10;93.00
55083;DHT22;40978;52.850;6.506;2022-07-25T13:16:44;25.10;92.60
55083;DHT22;40978;52.850;6.506;2022-07-25T13:19:10;25.10;92.60
55083;DHT22;40978;52.850;6.506;2022-07-25T13:21:36;24.90;92.80
55083;DHT22;40978;52.850;6.506;2022-07-25T13:24:03;24.60;91.70
55083;DHT22;40978;52.850;6.506;2022-07-25T13:26:30;24.40;92.60
55083;DHT22;40978;52.850;6.506;2022-07-25T13:28:56;24.10;92.40
55083;DHT22;40978;52.850;6.506;2022-07-25T13:31:22;23.70;92.50
55083;DHT22;40978;52.850;6.506;2022-07-25T13:33:48;23.50;92.50
55083;DHT22;40978;52.850;6.506;2022-07-25T13:36:15;23.30;92.70
55083;DHT22;40978;52.850;6.506;2022-07-25T13:38:42;23.10;92.90
55083;DHT22;40978;52.850;6.506;2022-07-25T13:41:09;23.00;93.40
55083;DHT22;40978;52.850;6.506;2022-07-25T13:43:34;22.90;94.00
55083;DHT22;40978;52.850;6.506;2022-07-25T13:46:00;22.90;94.10
55083;DHT22;40978;52.850;6.506;2022-07-25T13:48:27;22.80;94.30
55083;DHT22;40978;52.850;6.506;2022-07-25T13:50:54;22.80;94.50
55083;DHT22;40978;52.850;6.506;2022-07-25T13:53:20;22.80;94.60
55083;DHT22;40978;52.850;6.506;2022-07-25T13:55:46;23.00;95.10
55083;DHT22;40978;52.850;6.506;2022-07-25T13:58:12;23.10;95.70
55083;DHT22;40978;52.850;6.506;2022-07-25T14:00:38;23.50;96.20
55083;DHT22;40978;52.850;6.506;2022-07-25T14:03:05;24.10;95.90
55083;DHT22;40978;52.850;6.506;2022-07-25T14:05:31;24.50;95.10
55083;DHT22;40978;52.850;6.506;2022-07-25T14:07:58;24.80;94.80
55083;DHT22;40978;52.850;6.506;2022-07-25T14:10:24;25.20;94.40
55083;DHT22;40978;52.850;6.506;2022-07-25T14:12:50;25.50;94.40
55083;DHT22;40978;52.850;6.506;2022-07-25T14:15:15;25.60;93.30
55083;DHT22;40978;52.850;6.506;2022-07-25T14:17:42;25.40;92.30
55083;DHT22;40978;52.850;6.506;2022-07-25T14:20:08;25.10;92.40
55083;DHT22;40978;52.850;6.506;2022-07-25T14:22:34;24.70;93.20
55083;DHT22;40978;52.850;6.506;2022-07-25T14:25:00;24.40;93.90
55083;DHT22;40978;52.850;6.506;2022-07-25T14:27:26;24.10;94.50
55083;DHT22;40978;52.850;6.506;2022-07-25T14:29:52;23.80;94.10
55083;DHT22;40978;52.850;6.506;2022-07-25T14:32:18;23.60;95.00
55083;DHT22;40978;52.850;6.506;2022-07-25T14:34:44;23.80;95.70
55083;DHT22;40978;52.850;6.506;2022-07-25T14:37:10;24.10;95.00
55083;DHT22;40978;52.850;6.506;2022-07-25T14:39:36;24.60;94.30
55083;DHT22;40978;52.850;6.506;2022-07-25T14:42:02;24.90;94.00
55083;DHT22;40978;52.850;6.506;2022-07-25T14:44:29;25.40;94.40
55083;DHT22;40978;52.850;6.506;2022-07-25T14:46:55;25.70;93.40
55083;DHT22;40978;52.850;6.506;2022-07-25T14:49:22;25.90;91.30
55083;DHT22;40978;52.850;6.506;2022-07-25T14:51:48;25.90;89.10
55083;DHT22;40978;52.850;6.506;2022-07-25T14:54:15;25.90;88.70
55083;DHT22;40978;52.850;6.506;2022-07-25T14:56:42;25.90;86.10
55083;DHT22;40978;52.850;6.506;2022-07-25T14:59:08;25.80;85.40
55083;DHT22;40978;52.850;6.506;2022-07-25T15:01:35;25.60;84.70
55083;DHT22;40978;52.850;6.506;2022-07-25T15:04:01;25.40;85.90
55083;DHT22;40978;52.850;6.506;2022-07-25T15:06:27;25.30;86.70
55083;DHT22;40978;52.850;6.506;2022-07-25T15:08:52;25.30;87.20
55083;DHT22;40978;52.850;6.506;2022-07-25T15:11:19;25.20;85.80
55083;DHT22;40978;52.850;6.506;2022-07-25T15:13:46;25.20;86.90
55083;DHT22;40978;52.850;6.506;2022-07-25T15:16:13;25.30;87.40
55083;DHT22;40978;52.850;6.506;2022-07-25T15:18:39;25.30;86.70
55083;DHT22;40978;52.850;6.506;2022-07-25T15:21:05;25.40;86.00
55083;DHT22;40978;52.850;6.506;2022-07-25T15:23:31;25.20;85.00
55083;DHT22;40978;52.850;6.506;2022-07-25T15:25:57;25.00;84.50
55083;DHT22;40978;52.850;6.506;2022-07-25T15:28:23;24.90;84.60
55083;DHT22;40978;52.850;6.506;2022-07-25T15:30:49;24.70;85.50
55083;DHT22;40978;52.850;6.506;2022-07-25T15:33:19;24.60;83.80
55083;DHT22;40978;52.850;6.506;2022-07-25T15:35:46;24.40;84.40
55083;DHT22;40978;52.850;6.506;2022-07-25T15:38:15;24.30;85.50